Lothian, MD

2:07 AM EDT on August 30, 2016 (GMT -0400)
NERRS | | Change Station

Elev 1 ft 38.78 °N, 76.71 °W | Updated 37 minutes ago

Clear
Clear
72.0 °F
Feels Like 68 °F
N
0.0
Wind Variable Wind from West
Gusts 0.0 mph

Today
High -- | Low -- °F
--% Chance of Precip.
Yesterday
High -- | Low -- °F
Precip. -- in
Pressure 30.12 in
Visibility 10.0 miles
Clouds Clear
Heat Index 68 °F
Dew Point 70.0 °F
Humidity 94%
Rainfall in
Snow Depth Not available.
6:34 AM 7:39 PM
Waning Crescent, 5% visible
METAR KADW 300558Z AUTO 05004KT 10SM CLR 24/19 A3011 RMK AO2 SLP200 T02350189 10280 20235 58001 $
Pressure 30.12 in
Visibility 10.0 miles
Clouds Clear
Heat Index 68 °F
Dew Point 70.0 °F
Humidity 94%
Rainfall in
Snow Depth Not available.
6:34 AM 7:39 PM
Waning Crescent, 5% visible
METAR KADW 300558Z AUTO 05004KT 10SM CLR 24/19 A3011 RMK AO2 SLP200 T02350189 10280 20235 58001 $

10-Day Weather Forecast

Almanac

Astronomy

Aug. 30, 2016 Rise Set
Actual Time
Civil Twilight
Nautical Twilight
Astronomical Twilight
Moon
Length of Visible Light
Length of Day
Tomorrow will be .
, % of the Moon is Illuminated

Today's Extremes

State Highs State Lows

Community

WunderPhotos

Upload Photos

1,935,794 photos uploaded!

WunderBlog® & News

Nearby

Air Quality

  Air Quality AQ Index Pollutant
Not available.

Snow Depth

Station Depth Elevation

Earthquake Activity

City Distance Mag. Time & Date
Minimum magnitude displayed is 2.5.

Coastal Water Temperatures

Place Temperature

Stations

Nearby Weather Stations

Station Location Temp. Windchill Dew Point Humidity Wind Precip. Elev Updated Type
                   

Watches & Warnings

There are currently no watches in effect.